Mentasta Lake, Alaska
Current Conditions -  °F | °C
As of 8:53 AM on Sunday 25 Jan 2015 (Local Time) from PAOR Reporting Station
Scattered Clouds Scattered Clouds  
Wind Chill: -33°   Ceiling: Unl
Heat Index: -13°   Visibility: 9mi
Dew Point: -20°   Wind: 12mph
Humidity: 71%   Direction: 320°NW
Pressure: 29.6"   Gusts: 20mph
Location:  63.798°N, 142.321°W
Report Text: PAOR 251753Z 32010G17KT 9SM SCT071 M25/M29 A2960 RMK AO2 SNE45 SLP099 4/011 T12501289 11222 21250 53028
Loading
Personal Weather Stations






























Interactive Weather Map New forecast layout! Learn more

10-Day Weather Forecast

Advertisements
Track Severe Weather on mobile